EGPL

Benbecula Airport

Airport
ICAO code
EGPL
IATA Code
BEB
Summary
ICAO Region
EUR
ICAO Territory
Location

, Scotland

Serving
Benbecula
Elevation
19 ft
Coordinates
57° 28' 52" N , 7° 21' 46" W
Metar
EGPL 271020Z 29026G36KT 9999 SHRA FEW018CB SCT030 07/03 Q1005

Runways

Designator Length Width Surface Rops
17/35 1220 46 ASP No/No
6/24 1836 46 ASP No/No

Airport map

Aerial View

SKYbrary Partners:

Safety knowledge contributed by: